Creola, Alabama
Current Conditions -  °F | °C
As of 12:53 PM on Thursday 30 Oct 2014 (Local Time) from KBFM Reporting Station
Clear Clear  
Wind Chill: 71°   Ceiling: Unl
Heat Index: 71°   Visibility: 10mi
Dew Point: 43°   Wind: 15mph
Humidity: 36%   Direction: 10°N
Pressure: 30.07"   Gusts: 23mph
Location:  30.89°N, 88.04°W
Report Text: KBFM 301753Z 01013G20KT 10SM CLR 22/06 A3007 RMK AO2 SLP183 T02170061 10222 20133 58017
Loading
Personal Weather Stations






























Interactive Weather Map
Tropical Storm Tracking
New forecast layout! Learn more

10-Day Weather Forecast

Advertisements
Track Severe Weather on mobile